createdAt,value
2019-05-14T00:02:04.877Z,63.70
2019-05-14T00:04:31.718Z,63.90
2019-05-14T00:06:58.357Z,63.90
2019-05-14T00:09:25.010Z,64.40
2019-05-14T00:11:51.891Z,65.50
2019-05-14T00:14:43.152Z,65.10
2019-05-14T00:17:08.284Z,65.30
2019-05-14T00:19:34.933Z,66.10
2019-05-14T00:22:02.145Z,66.10
2019-05-14T00:24:28.909Z,66.70
2019-05-14T00:26:55.577Z,67.00
2019-05-14T00:29:22.253Z,66.90
2019-05-14T00:31:51.532Z,67.40
2019-05-14T00:34:17.569Z,67.70
2019-05-14T00:36:44.224Z,67.70
2019-05-14T00:39:11.310Z,67.90
2019-05-14T00:41:38.093Z,68.90
2019-05-14T00:44:05.081Z,69.10
2019-05-14T00:46:31.695Z,69.30
2019-05-14T00:48:58.612Z,69.50
2019-05-14T00:51:25.336Z,69.40
2019-05-14T00:53:52.080Z,69.80
2019-05-14T00:56:19.042Z,70.30
2019-05-14T00:58:46.481Z,70.10
2019-05-14T01:01:13.195Z,70.50
2019-05-14T01:03:41.485Z,70.70
2019-05-14T01:06:08.441Z,71.90
2019-05-14T01:08:35.356Z,72.50
2019-05-14T01:11:01.953Z,72.40
2019-05-14T01:13:31.082Z,72.70
2019-05-14T01:15:57.225Z,73.20
2019-05-14T01:18:23.859Z,74.00
2019-05-14T01:20:51.956Z,74.10
2019-05-14T01:23:18.853Z,74.40
2019-05-14T01:25:45.466Z,74.80
2019-05-14T01:28:12.101Z,74.90
2019-05-14T01:30:40.993Z,75.80
2019-05-14T01:33:07.484Z,76.20
2019-05-14T01:35:34.157Z,75.90
2019-05-14T01:38:02.714Z,76.80
2019-05-14T01:40:31.500Z,76.70
2019-05-14T01:42:58.160Z,77.40
2019-05-14T01:45:28.212Z,77.10
2019-05-14T01:47:53.297Z,76.60
2019-05-14T01:50:21.545Z,76.30
2019-05-14T01:52:48.401Z,77.00
2019-05-14T01:55:15.491Z,77.10
2019-05-14T01:57:42.627Z,77.60
2019-05-14T02:00:11.432Z,78.40
2019-05-14T02:02:38.423Z,79.30
2019-05-14T02:05:05.813Z,79.60
2019-05-14T02:07:32.684Z,79.50
2019-05-14T02:10:01.147Z,80.20
2019-05-14T02:12:28.238Z,80.20
2019-05-14T02:14:54.852Z,80.90
2019-05-14T02:17:21.479Z,81.50
2019-05-14T02:19:48.228Z,81.10
2019-05-14T02:22:14.900Z,82.00
2019-05-14T02:24:41.971Z,82.10
2019-05-14T02:27:09.160Z,82.10
2019-05-14T02:29:35.836Z,82.80
2019-05-14T02:32:03.065Z,83.10
2019-05-14T02:34:30.012Z,84.10
2019-05-14T02:37:00.193Z,85.50
2019-05-14T02:39:29.011Z,85.40
2019-05-14T02:41:54.391Z,84.70
2019-05-14T02:44:21.017Z,85.90
2019-05-14T02:46:50.455Z,86.30
2019-05-14T02:49:19.261Z,87.10
2019-05-14T02:51:44.792Z,87.20
2019-05-14T02:54:11.604Z,88.20
2019-05-14T02:56:40.348Z,88.30
2019-05-14T02:59:09.614Z,88.10
2019-05-14T03:01:35.280Z,88.90
2019-05-14T03:04:02.093Z,89.50
2019-05-14T03:06:29.246Z,89.90
2019-05-14T03:08:56.143Z,90.40
2019-05-14T03:11:22.774Z,90.80
2019-05-14T03:13:49.796Z,91.50
2019-05-14T03:16:26.153Z,91.80
2019-05-14T03:18:44.984Z,91.80
2019-05-14T03:21:11.634Z,91.80
2019-05-14T03:23:39.247Z,92.40
2019-05-14T03:26:09.346Z,93.00
2019-05-14T03:28:34.793Z,93.50
2019-05-14T03:31:03.628Z,94.40
2019-05-14T03:33:33.121Z,95.60
2019-05-14T03:36:08.319Z,95.90
2019-05-14T03:38:29.688Z,95.90
2019-05-14T03:40:59.778Z,96.10
2019-05-14T03:43:25.413Z,96.30
2019-05-14T03:45:52.217Z,96.30
2019-05-14T03:48:19.382Z,97.50
2019-05-14T03:50:49.220Z,97.60
2019-05-14T03:53:15.085Z,98.70
2019-05-14T03:55:41.906Z,99.10
2019-05-14T03:58:09.899Z,99.90
2019-05-14T04:00:49.578Z,99.90
2019-05-14T04:03:15.407Z,99.90
2019-05-14T04:05:42.307Z,99.90
2019-05-14T04:08:09.861Z,99.90
2019-05-14T04:10:39.325Z,99.90
2019-05-14T04:13:10.540Z,99.90
2019-05-14T04:15:39.915Z,99.90
2019-05-14T04:18:09.021Z,99.90
2019-05-14T04:20:39.222Z,99.90
2019-05-14T04:23:09.063Z,99.90
2019-05-14T04:25:39.007Z,99.90
2019-05-14T04:28:09.925Z,99.90
2019-05-14T04:30:40.062Z,99.90
2019-05-14T04:33:10.570Z,99.90
2019-05-14T04:35:40.131Z,99.90
2019-05-14T04:38:05.778Z,98.50
2019-05-14T04:40:32.548Z,97.80
2019-05-14T04:42:59.372Z,98.10
2019-05-14T04:45:26.242Z,95.40
2019-05-14T04:47:53.126Z,94.90
2019-05-14T04:50:20.271Z,94.00
2019-05-14T04:52:49.433Z,93.40
2019-05-14T04:55:16.224Z,91.50
2019-05-14T04:57:42.909Z,90.10
2019-05-14T05:00:12.258Z,86.30
2019-05-14T05:02:39.762Z,77.90
2019-05-14T05:05:09.068Z,71.70
2019-05-14T05:07:35.386Z,71.60
2019-05-14T05:10:02.623Z,73.10
2019-05-14T05:12:29.773Z,75.90
2019-05-14T05:14:58.619Z,71.40
2019-05-14T05:17:38.905Z,63.30
2019-05-14T05:19:53.733Z,61.60
2019-05-14T05:22:20.457Z,63.50
2019-05-14T05:24:48.435Z,68.10
2019-05-14T05:27:15.465Z,72.30
2019-05-14T05:29:42.128Z,75.70
2019-05-14T05:32:08.909Z,77.80
2019-05-14T05:34:35.605Z,80.00
2019-05-14T05:37:02.231Z,80.00
2019-05-14T05:39:28.931Z,79.50
2019-05-14T05:41:55.569Z,79.10
2019-05-14T05:44:22.282Z,80.40
2019-05-14T05:46:49.450Z,81.00
2019-05-14T05:49:18.515Z,80.70
2019-05-14T05:51:44.762Z,82.20
2019-05-14T05:54:11.395Z,82.10
2019-05-14T05:56:38.834Z,80.70
2019-05-14T05:59:05.769Z,83.30
2019-05-14T06:01:42.879Z,81.10
2019-05-14T06:04:01.025Z,79.30
2019-05-14T06:06:28.343Z,79.20
2019-05-14T06:08:55.297Z,78.00
2019-05-14T06:11:21.987Z,77.90
2019-05-14T06:13:48.796Z,78.10
2019-05-14T06:16:15.495Z,77.80
2019-05-14T06:18:42.137Z,76.90
2019-05-14T06:21:09.383Z,75.60
2019-05-14T06:23:38.364Z,73.30
2019-05-14T06:26:04.764Z,69.50
2019-05-14T06:28:33.544Z,68.00
2019-05-14T06:31:00.614Z,66.40
2019-05-14T06:33:28.709Z,62.90
2019-05-14T06:35:55.556Z,64.30
2019-05-14T06:38:22.815Z,59.30
2019-05-14T06:40:49.790Z,58.70
2019-05-14T06:43:16.403Z,62.70
2019-05-14T06:45:44.968Z,68.60
2019-05-14T06:48:26.369Z,71.60
2019-05-14T06:50:40.432Z,73.60
2019-05-14T06:53:08.508Z,66.90
2019-05-14T06:55:35.278Z,59.10
2019-05-14T06:58:01.867Z,54.40
2019-05-14T07:00:28.915Z,51.80
2019-05-14T07:02:58.123Z,53.90
2019-05-14T07:05:24.649Z,55.90
2019-05-14T07:07:51.310Z,54.90
2019-05-14T07:10:19.689Z,55.00
2019-05-14T07:12:46.435Z,53.10
2019-05-14T07:15:13.444Z,53.10
2019-05-14T07:17:40.136Z,52.10
2019-05-14T07:20:08.883Z,54.00
2019-05-14T07:22:35.949Z,55.70
2019-05-14T07:25:03.789Z,55.60
2019-05-14T07:27:30.451Z,54.00
2019-05-14T07:29:58.334Z,55.50
2019-05-14T07:32:25.497Z,55.90
2019-05-14T07:34:52.556Z,56.60
2019-05-14T07:37:19.144Z,56.50
2019-05-14T07:39:48.481Z,52.70
2019-05-14T07:42:14.593Z,49.30
2019-05-14T07:44:41.714Z,48.40
2019-05-14T07:47:08.503Z,47.50
2019-05-14T07:49:35.564Z,49.20
2019-05-14T07:52:02.264Z,50.90
2019-05-14T07:54:28.925Z,51.80
2019-05-14T07:56:55.557Z,52.70
2019-05-14T07:59:22.177Z,54.30
2019-05-14T08:01:49.185Z,53.50
2019-05-14T08:04:19.496Z,52.40
2019-05-14T08:06:44.602Z,53.40
2019-05-14T08:09:12.033Z,52.90
2019-05-14T08:11:38.908Z,52.00
2019-05-14T08:14:05.678Z,50.20
2019-05-14T08:16:32.649Z,46.20
2019-05-14T08:19:00.151Z,44.00
2019-05-14T08:21:28.463Z,42.60
2019-05-14T08:23:59.081Z,42.00
2019-05-14T08:26:24.712Z,41.70
2019-05-14T08:28:51.667Z,42.10
2019-05-14T08:31:18.842Z,42.60
2019-05-14T08:33:45.694Z,43.00
2019-05-14T08:36:12.397Z,43.30
2019-05-14T08:38:39.025Z,43.80
2019-05-14T08:41:08.207Z,42.20
2019-05-14T08:43:34.978Z,41.80
2019-05-14T08:46:01.676Z,38.40
2019-05-14T08:48:29.670Z,36.10
2019-05-14T08:50:58.580Z,35.40
2019-05-14T08:53:25.057Z,35.40
2019-05-14T08:55:51.779Z,37.10
2019-05-14T08:58:20.121Z,38.40
2019-05-14T09:00:48.272Z,40.00
2019-05-14T09:03:15.380Z,41.40
2019-05-14T09:05:42.089Z,41.60
2019-05-14T09:08:09.132Z,38.60
2019-05-14T09:10:35.909Z,37.00
2019-05-14T09:13:02.952Z,37.20
2019-05-14T09:15:29.965Z,37.40
2019-05-14T09:17:58.663Z,37.60
2019-05-14T09:20:25.109Z,38.50
2019-05-14T09:22:51.759Z,38.30
2019-05-14T09:25:19.068Z,38.80
2019-05-14T09:27:46.201Z,36.80
2019-05-14T09:30:14.230Z,35.70
2019-05-14T09:32:40.850Z,36.80
2019-05-14T09:35:09.738Z,36.00
2019-05-14T09:37:39.295Z,34.70
2019-05-14T09:40:08.649Z,32.70
2019-05-14T09:42:34.897Z,33.50
2019-05-14T09:45:01.763Z,34.80
2019-05-14T09:47:28.591Z,34.20
2019-05-14T09:49:55.302Z,34.80
2019-05-14T09:52:22.249Z,33.90
2019-05-14T09:54:49.668Z,31.20
2019-05-14T09:57:18.900Z,29.50
2019-05-14T09:59:48.773Z,28.40
2019-05-14T10:02:17.894Z,26.60
2019-05-14T10:04:44.881Z,27.20
2019-05-14T10:07:15.487Z,29.00
2019-05-14T10:09:40.845Z,31.10
2019-05-14T10:12:09.006Z,33.50
2019-05-14T10:14:35.861Z,35.00
2019-05-14T10:17:02.818Z,36.00
2019-05-14T10:19:29.921Z,36.20
2019-05-14T10:21:58.837Z,36.30
2019-05-14T10:24:44.863Z,32.90
2019-05-14T10:27:11.656Z,30.70
2019-05-14T10:29:39.409Z,29.50
2019-05-14T10:32:08.552Z,30.10
2019-05-14T10:34:35.101Z,31.00
2019-05-14T10:37:03.308Z,32.60
2019-05-14T10:39:30.477Z,33.70
2019-05-14T10:41:57.150Z,33.90
2019-05-14T10:44:24.796Z,34.80
2019-05-14T10:46:51.683Z,32.90
2019-05-14T10:49:23.409Z,31.80
2019-05-14T10:51:47.966Z,32.10
2019-05-14T10:54:22.251Z,33.00
2019-05-14T10:56:43.778Z,35.00
2019-05-14T10:59:10.489Z,34.60
2019-05-14T11:01:39.022Z,34.90
2019-05-14T11:04:05.824Z,35.30
2019-05-14T11:06:33.875Z,34.80
2019-05-14T11:09:00.568Z,34.30
2019-05-14T11:11:29.043Z,34.20
2019-05-14T11:13:56.027Z,35.00
2019-05-14T11:16:22.762Z,35.00
2019-05-14T11:18:50.102Z,35.40
2019-05-14T11:21:25.720Z,34.60
2019-05-14T11:23:48.810Z,33.90
2019-05-14T11:26:14.778Z,32.00
2019-05-14T11:28:41.557Z,29.30
2019-05-14T11:31:09.207Z,28.10
2019-05-14T11:33:38.668Z,26.80
2019-05-14T11:36:05.080Z,25.00
2019-05-14T11:38:37.198Z,25.60
2019-05-14T11:41:00.269Z,27.00
2019-05-14T11:43:28.725Z,27.30
2019-05-14T11:45:55.589Z,26.40
2019-05-14T11:48:22.318Z,27.70
2019-05-14T11:50:49.403Z,29.50
2019-05-14T11:53:19.858Z,30.80
2019-05-14T11:55:45.406Z,30.20
2019-05-14T11:58:12.185Z,30.60
2019-05-14T12:00:38.985Z,31.10
2019-05-14T12:03:05.748Z,31.90
2019-05-14T12:05:32.641Z,32.40
2019-05-14T12:07:59.285Z,32.40
2019-05-14T12:10:29.154Z,31.20
2019-05-14T12:12:55.344Z,30.60
2019-05-14T12:15:22.285Z,30.30
2019-05-14T12:17:50.958Z,30.40
2019-05-14T12:20:17.850Z,30.50
2019-05-14T12:22:44.479Z,31.00
2019-05-14T12:25:11.490Z,31.40
2019-05-14T12:27:38.904Z,32.20
2019-05-14T12:30:09.675Z,32.50
2019-05-14T12:32:35.793Z,32.60
2019-05-14T12:35:02.914Z,33.60
2019-05-14T12:37:29.807Z,31.70
2019-05-14T12:39:58.630Z,32.10
2019-05-14T12:42:25.107Z,31.00
2019-05-14T12:44:51.781Z,30.90
2019-05-14T12:47:18.943Z,30.30
2019-05-14T12:49:48.141Z,29.40
2019-05-14T12:52:24.398Z,28.50
2019-05-14T12:54:42.915Z,28.40
2019-05-14T12:57:09.554Z,27.30
2019-05-14T12:59:38.146Z,27.20
2019-05-14T13:02:05.513Z,26.20
2019-05-14T13:04:33.304Z,26.30
2019-05-14T13:07:00.131Z,26.80
2019-05-14T13:09:28.240Z,27.10
2019-05-14T13:11:54.917Z,27.40
2019-05-14T13:14:21.563Z,27.00
2019-05-14T13:16:48.766Z,27.00
2019-05-14T13:19:18.839Z,27.00
2019-05-14T13:22:08.697Z,26.60
2019-05-14T13:24:20.415Z,26.40
2019-05-14T13:26:49.563Z,26.10
2019-05-14T13:29:19.386Z,24.50
2019-05-14T13:31:45.842Z,24.60
2019-05-14T13:34:12.432Z,24.60
2019-05-14T13:36:39.735Z,25.90
2019-05-14T13:39:09.248Z,25.20
2019-05-14T13:41:41.423Z,25.20
2019-05-14T13:44:18.530Z,25.40
2019-05-14T13:46:33.607Z,25.90
2019-05-14T13:49:00.332Z,27.40
2019-05-14T13:51:32.664Z,28.00
2019-05-14T13:53:55.936Z,28.50
2019-05-14T13:56:22.818Z,28.30
2019-05-14T13:58:50.590Z,26.90
2019-05-14T14:01:19.402Z,28.00
2019-05-14T14:03:52.308Z,28.40
2019-05-14T14:06:14.712Z,27.60
2019-05-14T14:08:42.853Z,26.20
2019-05-14T14:11:12.682Z,24.30
2019-05-14T14:13:39.214Z,23.60
2019-05-14T14:16:06.780Z,24.60
2019-05-14T14:18:34.508Z,27.30
2019-05-14T14:21:01.521Z,28.60
2019-05-14T14:23:31.335Z,28.50
2019-05-14T14:25:59.514Z,29.00
2019-05-14T14:28:27.348Z,27.60
2019-05-14T14:30:54.197Z,25.60
2019-05-14T14:33:21.634Z,24.70
2019-05-14T14:35:49.128Z,23.90
2019-05-14T14:38:16.174Z,23.20
2019-05-14T14:40:43.270Z,23.50
2019-05-14T14:43:10.063Z,24.20
2019-05-14T14:45:44.750Z,26.10
2019-05-14T14:48:05.703Z,26.80
2019-05-14T14:50:32.441Z,26.20
2019-05-14T14:52:59.903Z,25.00
2019-05-14T14:55:30.201Z,24.60
2019-05-14T14:57:55.727Z,25.00
2019-05-14T15:00:22.568Z,26.20
2019-05-14T15:02:49.693Z,27.60
2019-05-14T15:05:19.845Z,26.40
2019-05-14T15:07:49.681Z,26.80
2019-05-14T15:10:15.400Z,28.50
2019-05-14T15:12:42.073Z,28.10
2019-05-14T15:15:08.781Z,27.40
2019-05-14T15:17:35.392Z,28.00
2019-05-14T15:20:02.148Z,28.50
2019-05-14T15:22:31.026Z,29.50
2019-05-14T15:24:58.592Z,29.90
2019-05-14T15:27:25.448Z,29.80
2019-05-14T15:29:52.053Z,30.20
2019-05-14T15:32:19.592Z,29.80
2019-05-14T15:34:50.275Z,28.60
2019-05-14T15:37:19.068Z,28.70
2019-05-14T15:39:45.551Z,29.60
2019-05-14T15:42:13.700Z,30.50
2019-05-14T15:44:50.042Z,30.60
2019-05-14T15:47:11.488Z,30.80
2019-05-14T15:49:38.966Z,30.00
2019-05-14T15:52:08.283Z,28.50
2019-05-14T15:54:45.571Z,27.60
2019-05-14T15:57:03.000Z,26.90
2019-05-14T15:59:29.806Z,27.50
2019-05-14T16:01:56.724Z,26.40
2019-05-14T16:04:23.357Z,28.50
2019-05-14T16:06:50.067Z,30.20
2019-05-14T16:09:19.470Z,30.50
2019-05-14T16:11:45.721Z,30.60
2019-05-14T16:14:13.271Z,32.00
2019-05-14T16:16:39.935Z,31.20
2019-05-14T16:19:08.190Z,31.40
2019-05-14T16:21:38.344Z,31.20
2019-05-14T16:24:04.690Z,31.30
2019-05-14T16:26:31.563Z,31.00
2019-05-14T16:28:59.237Z,31.90
2019-05-14T16:31:27.998Z,31.70
2019-05-14T16:33:55.255Z,32.10
2019-05-14T16:36:23.261Z,32.60
2019-05-14T16:38:50.147Z,32.40
2019-05-14T16:41:18.411Z,32.90
2019-05-14T16:43:45.436Z,33.20
2019-05-14T16:46:12.198Z,33.30
2019-05-14T16:48:39.718Z,33.90
2019-05-14T16:51:08.714Z,33.90
2019-05-14T16:53:37.831Z,34.40
2019-05-14T16:56:04.234Z,34.00
2019-05-14T16:58:30.960Z,34.00
2019-05-14T17:00:58.868Z,34.10
2019-05-14T17:03:25.789Z,34.00
2019-05-14T17:05:52.443Z,33.70
2019-05-14T17:08:19.275Z,33.60
2019-05-14T17:10:48.154Z,34.30
2019-05-14T17:13:14.745Z,34.90
2019-05-14T17:15:41.381Z,34.40
2019-05-14T17:18:08.863Z,35.50
2019-05-14T17:20:35.740Z,34.70
2019-05-14T17:23:02.364Z,35.20
2019-05-14T17:25:30.466Z,34.70
2019-05-14T17:27:59.359Z,34.80
2019-05-14T17:30:26.201Z,35.30
2019-05-14T17:32:53.208Z,35.60
2019-05-14T17:35:19.852Z,35.30
2019-05-14T17:37:48.341Z,36.10
2019-05-14T17:40:15.262Z,35.90
2019-05-14T17:42:42.020Z,36.40
2019-05-14T17:45:11.048Z,36.40
2019-05-14T17:47:38.809Z,36.70
2019-05-14T17:50:06.450Z,37.60
2019-05-14T17:52:33.143Z,36.90
2019-05-14T17:54:59.793Z,37.90
2019-05-14T17:57:34.243Z,37.90
2019-05-14T17:59:55.097Z,37.50
2019-05-14T18:02:21.715Z,37.60
2019-05-14T18:04:48.926Z,38.10
2019-05-14T18:07:15.625Z,37.30
2019-05-14T18:09:46.516Z,38.10
2019-05-14T18:12:13.583Z,38.10
2019-05-14T18:14:40.239Z,38.40
2019-05-14T18:17:08.796Z,38.80
2019-05-14T18:19:37.883Z,37.80
2019-05-14T18:22:04.275Z,38.70
2019-05-14T18:24:30.888Z,38.10
2019-05-14T18:26:58.143Z,37.90
2019-05-14T18:29:24.877Z,38.00
2019-05-14T18:31:54.425Z,38.00
2019-05-14T18:34:20.729Z,37.60
2019-05-14T18:36:48.837Z,37.90
2019-05-14T18:39:20.236Z,37.60
2019-05-14T18:41:44.405Z,38.40
2019-05-14T18:44:11.198Z,37.90
2019-05-14T18:46:39.390Z,38.40
2019-05-14T18:49:08.778Z,39.30
2019-05-14T18:51:35.026Z,38.80
2019-05-14T18:54:01.709Z,38.40
2019-05-14T18:56:29.242Z,38.50
2019-05-14T18:58:56.289Z,39.30
2019-05-14T19:01:23.360Z,38.70
2019-05-14T19:03:50.025Z,40.10
2019-05-14T19:06:18.836Z,39.50
2019-05-14T19:08:45.482Z,39.60
2019-05-14T19:11:12.183Z,39.50
2019-05-14T19:13:39.141Z,39.80
2019-05-14T19:16:08.211Z,40.40
2019-05-14T19:18:34.402Z,39.70
2019-05-14T19:21:01.076Z,40.10
2019-05-14T19:23:28.928Z,40.00
2019-05-14T19:25:56.365Z,40.60
2019-05-14T19:28:23.075Z,40.20
2019-05-14T19:30:49.729Z,40.10
2019-05-14T19:33:16.453Z,40.90
2019-05-14T19:35:43.101Z,40.20
2019-05-14T19:38:09.907Z,41.70
2019-05-14T19:40:38.981Z,41.90
2019-05-14T19:43:05.357Z,40.70
2019-05-14T19:45:32.116Z,41.10
2019-05-14T19:47:58.815Z,41.30
2019-05-14T19:50:25.443Z,41.30
2019-05-14T19:52:52.157Z,41.20
2019-05-14T19:55:19.020Z,41.30
2019-05-14T19:57:48.803Z,42.10
2019-05-14T20:00:21.805Z,41.30
2019-05-14T20:02:48.806Z,42.10
2019-05-14T20:05:20.282Z,42.20
2019-05-14T20:07:49.075Z,41.20
2019-05-14T20:10:17.470Z,42.40
2019-05-14T20:12:44.147Z,41.90
2019-05-14T20:15:11.723Z,41.70
2019-05-14T20:17:38.787Z,41.70
2019-05-14T20:20:08.623Z,41.60
2019-05-14T20:22:34.708Z,42.50
2019-05-14T20:25:01.558Z,41.70
2019-05-14T20:27:28.363Z,41.70
2019-05-14T20:29:57.973Z,41.90
2019-05-14T20:32:28.288Z,42.10
2019-05-14T20:34:54.883Z,42.80
2019-05-14T20:37:21.616Z,42.60
2019-05-14T20:39:48.423Z,43.50
2019-05-14T20:42:15.504Z,43.30
2019-05-14T20:44:42.187Z,43.30
2019-05-14T20:47:09.299Z,43.60
2019-05-14T20:49:38.029Z,44.00
2019-05-14T20:52:04.748Z,44.60
2019-05-14T20:54:31.478Z,44.50
2019-05-14T20:56:58.609Z,44.80
2019-05-14T20:59:25.622Z,44.30
2019-05-14T21:01:52.321Z,44.50
2019-05-14T21:04:19.417Z,46.60
2019-05-14T21:06:48.484Z,45.90
2019-05-14T21:09:15.114Z,45.00
2019-05-14T21:11:41.816Z,45.50
2019-05-14T21:14:09.054Z,45.30
2019-05-14T21:16:35.792Z,45.80
2019-05-14T21:19:03.174Z,46.60
2019-05-14T21:21:29.817Z,47.00
2019-05-14T21:23:58.512Z,47.00
2019-05-14T21:26:25.444Z,46.80
2019-05-14T21:28:52.109Z,47.40
2019-05-14T21:31:19.521Z,48.20
2019-05-14T21:33:46.181Z,46.80
2019-05-14T21:36:12.816Z,47.50
2019-05-14T21:38:41.144Z,47.80
2019-05-14T21:41:07.998Z,47.90
2019-05-14T21:43:34.947Z,49.10
2019-05-14T21:46:01.652Z,49.20
2019-05-14T21:48:28.868Z,48.10
2019-05-14T21:50:56.122Z,48.40
2019-05-14T21:53:22.976Z,49.20
2019-05-14T21:55:49.597Z,50.00
2019-05-14T21:58:18.723Z,48.70
2019-05-14T22:00:48.661Z,49.30
2019-05-14T22:03:15.537Z,49.60
2019-05-14T22:05:42.442Z,50.60
2019-05-14T22:08:09.435Z,51.30
2019-05-14T22:10:36.102Z,51.30
2019-05-14T22:13:02.874Z,50.50
2019-05-14T22:15:29.532Z,51.30
2019-05-14T22:17:58.536Z,52.20
2019-05-14T22:20:24.753Z,52.40
2019-05-14T22:22:51.398Z,51.10
2019-05-14T22:25:19.004Z,51.90
2019-05-14T22:27:48.191Z,53.10
2019-05-14T22:30:14.663Z,53.50
2019-05-14T22:32:41.553Z,53.90
2019-05-14T22:35:08.864Z,53.30
2019-05-14T22:37:35.576Z,54.10
2019-05-14T22:40:02.901Z,54.90
2019-05-14T22:42:29.673Z,54.50
2019-05-14T22:44:58.288Z,54.10
2019-05-14T22:47:25.307Z,54.40
2019-05-14T22:49:51.944Z,54.80
2019-05-14T22:52:19.001Z,55.30
2019-05-14T22:54:46.319Z,55.10
2019-05-14T22:57:12.915Z,55.70
2019-05-14T22:59:39.531Z,55.80
2019-05-14T23:02:08.415Z,56.10
2019-05-14T23:04:35.389Z,55.90
2019-05-14T23:07:02.131Z,56.20
2019-05-14T23:09:29.296Z,56.20
2019-05-14T23:11:56.069Z,56.30
2019-05-14T23:14:22.681Z,57.00
2019-05-14T23:16:49.310Z,56.60
2019-05-14T23:19:16.096Z,56.90
2019-05-14T23:21:42.731Z,57.20
2019-05-14T23:24:09.545Z,56.80
2019-05-14T23:26:36.569Z,56.60
2019-05-14T23:29:03.287Z,58.00
2019-05-14T23:31:29.947Z,57.10
2019-05-14T23:33:58.589Z,57.20
2019-05-14T23:36:25.371Z,57.60
2019-05-14T23:38:52.800Z,58.40
2019-05-14T23:41:19.753Z,59.20
2019-05-14T23:43:46.361Z,58.60
2019-05-14T23:46:13.000Z,58.50
2019-05-14T23:48:39.700Z,58.90
2019-05-14T23:51:08.125Z,59.40
2019-05-14T23:53:34.892Z,58.60
2019-05-14T23:56:01.563Z,59.10
2019-05-14T23:58:28.978Z,59.00
